Weather at Split Seaplane City [CLOSED]

Public forecast

Using degrees Celsius for public forecast. Weather courtesy of forecast.io.

Closest aviation weather report (METAR) to Split Seaplane City

Closest report is Split Airport, 6.5 nm (12.1 km) WNW.

2024/05/24 07:00 (retrieved 19 minutes ago)

LDSP 240700Z 09003KT 030V130 CAVOK 21/13 Q1019 NOSIG

Closest aviation forecast (TAF) to Split Seaplane City

Closest forecast is Split Airport, 6.5 nm (12.1 km) WNW.

2024/05/24 06:27 (retrieved 52 minutes ago)

TAF LDSP 240525Z 2406/2506 11004KT 9999 FEW050 TX25/2413Z TN15/2503Z BECMG 2408/2410 23012KT BECMG 2416/2418 31006KT